Time;durP1;ratioP1;P1;durP2;ratioP2;P2;SDS_P1;SDS_P2;PMS_P1;PMS_P2;Temp;Humidity;BMP_temperature;BMP_pressure;BME280_temperature;BME280_humidity;BME280_pressure;Samples;Min_cycle;Max_cycle;Signal;HPM_P1;HPM_P2
2021/11/28 00:00:05;;;;;;;;;;;;;;;-0.65;100.00;98060.64;1759395;81;20132;-70
2021/11/28 00:02:34;;;;;;;;;;;;;;;-0.73;100.00;98051.70;1759560;80;20162;-70
2021/11/28 00:05:00;;;;;;;;;;;;;;;-0.88;100.00;98062.59;1748027;80;20428;-70
2021/11/28 00:07:47;;;;;;;;;;;;;;;-0.90;100.00;98067.26;1756302;81;21809;-70
2021/11/28 00:10:05;;;;;;;;;;;;;;;-0.96;100.00;98058.89;1754675;81;20442;-70
2021/11/28 00:12:42;;;;;;;;;;;;;;;-1.11;100.00;98056.58;1747101;81;20122;-70
2021/11/28 00:15:16;;;;;;;;;;;;;;;-1.28;100.00;98069.47;1749152;81;20659;-70
2021/11/28 00:17:43;;;;;;;;;;;;;;;-1.38;100.00;98067.81;1755301;81;20424;-70
2021/11/28 00:20:15;;;;;;;;;;;;;;;-1.38;100.00;98059.92;1708528;83;21173;-69
2021/11/28 00:22:42;;;;;;;;;;;;;;;-1.47;100.00;98069.92;1695652;84;20146;-69
2021/11/28 00:25:12;;;;;;;;;;;;;;;-1.55;100.00;98072.27;1698438;84;20208;-70
2021/11/28 00:27:39;;;;;;;;;;;;;;;-1.58;100.00;98075.84;1697659;84;20110;-69
2021/11/28 00:30:12;;;;;;;;;;;;;;;-1.64;100.00;98066.98;1705579;83;20153;-70
2021/11/28 00:32:39;;;;;;;;;;;;;;;-1.75;100.00;98065.01;1701457;83;21128;-68
2021/11/28 00:35:07;;;;;;;;;;;;;;;-1.89;100.00;98063.45;1678851;84;20164;-69
2021/11/28 00:37:34;;;;;;;;;;;;;;;-1.90;100.00;98060.02;1691760;84;20118;-69
2021/11/28 00:40:03;;;;;;;;;;;;;;;-1.82;100.00;98054.52;1703767;84;20464;-69
2021/11/28 00:42:32;;;;;;;;;;;;;;;-1.84;100.00;98053.11;1705550;82;20142;-69
2021/11/28 00:44:59;;;;;;;;;;;;;;;-1.93;100.00;98053.88;1709181;83;21513;-68
2021/11/28 00:47:26;;;;;;;;;;;;;;;-2.02;100.00;98044.09;1700424;84;20093;-69
2021/11/28 00:50:05;;;;;;;;;;;;;;;-2.11;100.00;98055.86;1701097;84;20115;-68
2021/11/28 00:52:32;;;;;;;;;;;;;;;-2.11;100.00;98059.80;1702175;83;20145;-68
2021/11/28 00:55:00;;;;;;;;;;;;;;;-2.16;100.00;98051.25;1693786;84;20101;-68
2021/11/28 00:57:28;;;;;;;;;;;;;;;-2.20;100.00;98057.13;1695861;82;20565;-68
2021/11/28 00:59:55;;;;;;;;;;;;;;;-2.20;100.00;98054.50;1734320;82;20307;-68
2021/11/28 01:02:22;;;;;;;;;;;;;;;-2.21;100.00;98046.30;1734573;82;20092;-67
2021/11/28 01:04:49;;;;;;;;;;;;;;;-2.24;100.00;98036.21;1735163;82;20119;-67
2021/11/28 01:07:15;;;;;;;;;;;;;;;-2.28;100.00;98040.26;1734560;82;20151;-68
2021/11/28 01:09:42;;;;;;;;;;;;;;;-2.30;100.00;98033.92;1731627;82;21834;-68
2021/11/28 01:12:09;;;;;;;;;;;;;;;-2.31;100.00;98037.54;1703555;82;20141;-67
2021/11/28 01:14:36;;;;;;;;;;;;;;;-2.31;100.00;98039.37;1704717;82;20106;-67
2021/11/28 01:17:04;;;;;;;;;;;;;;;-2.23;100.00;98045.70;1703854;84;20105;-67
2021/11/28 01:19:30;;;;;;;;;;;;;;;-2.17;100.00;98042.25;1703341;84;20105;-67
2021/11/28 01:22:03;;;;;;;;;;;;;;;-2.17;100.00;98043.05;1704108;82;21154;-67
2021/11/28 01:24:30;;;;;;;;;;;;;;;-2.12;100.00;98041.11;1704509;84;20121;-68
2021/11/28 01:27:00;;;;;;;;;;;;;;;-2.13;100.00;98040.83;1698746;84;20094;-66
2021/11/28 01:29:27;;;;;;;;;;;;;;;-2.20;100.00;98036.91;1705814;84;20212;-66
2021/11/28 01:31:54;;;;;;;;;;;;;;;-2.22;100.00;98034.98;1697512;84;20132;-67
2021/11/28 01:34:21;;;;;;;;;;;;;;;-2.22;100.00;98025.78;1703929;84;21761;-67
2021/11/28 01:36:48;;;;;;;;;;;;;;;-2.26;100.00;98018.52;1698774;83;20221;-65
2021/11/28 01:39:15;;;;;;;;;;;;;;;-2.30;100.00;98016.00;1704551;83;20547;-66
2021/11/28 01:41:43;;;;;;;;;;;;;;;-2.40;100.00;98015.96;1698490;84;20089;-67
2021/11/28 01:44:10;;;;;;;;;;;;;;;-2.40;100.00;98021.70;1703652;84;20094;-66
2021/11/28 01:46:36;;;;;;;;;;;;;;;-2.28;100.00;98021.38;1707592;84;21162;-66
2021/11/28 01:49:03;;;;;;;;;;;;;;;-2.21;100.00;98010.81;1706709;84;20452;-64
2021/11/28 01:51:30;;;;;;;;;;;;;;;-2.24;100.00;98023.88;1698322;84;20120;-67
2021/11/28 01:53:59;;;;;;;;;;;;;;;-2.23;100.00;98026.81;1704759;84;20106;-66
2021/11/28 01:56:26;;;;;;;;;;;;;;;-2.07;100.00;98039.98;1705488;84;20114;-66
2021/11/28 01:58:53;;;;;;;;;;;;;;;-1.92;100.00;98039.70;1705127;84;21177;-66
2021/11/28 02:01:23;;;;;;;;;;;;;;;-1.95;100.00;98052.77;1704619;83;20082;-66
2021/11/28 02:03:52;;;;;;;;;;;;;;;-2.07;100.00;98056.27;1700948;82;20125;-65
2021/11/28 02:06:19;;;;;;;;;;;;;;;-2.17;100.00;98064.59;1697326;84;20186;-65
2021/11/28 02:08:47;;;;;;;;;;;;;;;-2.20;100.00;98072.39;1703860;84;20085;-66
2021/11/28 02:11:15;;;;;;;;;;;;;;;-2.30;100.00;98067.25;1699600;84;21090;-66
2021/11/28 02:13:45;;;;;;;;;;;;;;;-2.46;100.00;98060.13;1695385;84;20074;-65
2021/11/28 02:16:14;;;;;;;;;;;;;;;-2.56;100.00;98053.70;1701313;84;20081;-66
2021/11/28 02:18:43;;;;;;;;;;;;;;;-2.63;100.00;98059.76;1698190;83;20407;-67
2021/11/28 02:21:11;;;;;;;;;;;;;;;-2.69;100.00;98054.55;1702173;84;20078;-65
2021/11/28 02:23:41;;;;;;;;;;;;;;;-2.71;100.00;98052.63;1703895;82;20102;-67
2021/11/28 02:26:12;;;;;;;;;;;;;;;-2.62;100.00;98052.71;1705982;83;20129;-66
2021/11/28 02:28:39;;;;;;;;;;;;;;;-2.48;100.00;98051.64;1705428;84;20431;-66
2021/11/28 02:31:05;;;;;;;;;;;;;;;-2.52;100.00;98050.45;1697264;84;20167;-66
2021/11/28 02:33:32;;;;;;;;;;;;;;;-2.52;100.00;98045.69;1696631;84;20125;-66
2021/11/28 02:35:59;;;;;;;;;;;;;;;-2.56;100.00;98038.73;1704401;83;21106;-66
2021/11/28 02:38:25;;;;;;;;;;;;;;;-2.61;100.00;98039.35;1699025;84;20167;-66
2021/11/28 02:40:52;;;;;;;;;;;;;;;-2.72;100.00;98043.11;1701753;83;20423;-66
2021/11/28 02:43:21;;;;;;;;;;;;;;;-2.84;100.00;98050.31;1704423;84;20126;-66
2021/11/28 02:45:49;;;;;;;;;;;;;;;-2.89;100.00;98063.73;1696797;84;20208;-66
2021/11/28 02:48:16;;;;;;;;;;;;;;;-2.87;100.00;98057.27;1703590;84;21159;-66
2021/11/28 02:50:43;;;;;;;;;;;;;;;-2.84;100.00;98057.39;1697096;84;20170;-67
2021/11/28 02:53:10;;;;;;;;;;;;;;;-2.86;100.00;98053.65;1702233;84;20134;-66
2021/11/28 02:55:47;;;;;;;;;;;;;;;-2.91;100.00;98048.20;1697783;83;20153;-65
2021/11/28 02:58:16;;;;;;;;;;;;;;;-2.95;100.00;98047.50;1701161;83;20161;-66
2021/11/28 03:00:45;;;;;;;;;;;;;;;-3.00;100.00;98038.11;1702548;83;21161;-66
2021/11/28 03:03:13;;;;;;;;;;;;;;;-3.11;100.00;98035.09;1697315;84;20436;-66
2021/11/28 03:05:40;;;;;;;;;;;;;;;-3.18;100.00;98029.55;1701755;84;20114;-66
2021/11/28 03:08:07;;;;;;;;;;;;;;;-3.22;100.00;98030.45;1696571;84;20182;-67
2021/11/28 03:10:37;;;;;;;;;;;;;;;-3.26;100.00;98033.16;1702026;83;20106;-66
2021/11/28 03:13:18;;;;;;;;;;;;;;;-3.29;100.00;98032.27;1698380;83;20126;-66
2021/11/28 03:15:46;;;;;;;;;;;;;;;-3.32;100.00;98028.23;1700608;83;20138;-66
2021/11/28 03:18:16;;;;;;;;;;;;;;;-3.31;100.00;98023.78;1699402;84;20423;-66
2021/11/28 03:20:43;;;;;;;;;;;;;;;-3.33;100.00;98029.25;1696757;83;20146;-66
2021/11/28 03:23:11;;;;;;;;;;;;;;;-3.22;100.00;98040.14;1702438;84;20133;-65
2021/11/28 03:25:40;;;;;;;;;;;;;;;-2.89;100.00;98034.85;1688539;84;21199;-66
2021/11/28 03:28:15;;;;;;;;;;;;;;;-2.70;100.00;98034.52;1703479;84;20467;-68
2021/11/28 03:30:43;;;;;;;;;;;;;;;-2.70;100.00;98043.72;1698816;83;20129;-66
2021/11/28 03:33:20;;;;;;;;;;;;;;;-2.85;100.00;98034.75;1696663;84;20126;-67
2021/11/28 03:35:50;;;;;;;;;;;;;;;-2.87;100.00;98048.08;1694991;83;20171;-66
2021/11/28 03:38:16;;;;;;;;;;;;;;;-2.69;100.00;98051.91;1693391;83;21190;-66
2021/11/28 03:40:44;;;;;;;;;;;;;;;-2.71;100.00;98054.73;1706969;83;20140;-67
2021/11/28 03:43:11;;;;;;;;;;;;;;;-2.84;100.00;98054.26;1712872;83;20116;-67
2021/11/28 03:45:38;;;;;;;;;;;;;;;-2.98;100.00;98049.22;1697879;83;20123;-67
2021/11/28 03:48:07;;;;;;;;;;;;;;;-3.11;100.00;98050.84;1692873;83;20465;-66
2021/11/28 03:50:38;;;;;;;;;;;;;;;-3.21;100.00;98045.17;1693135;83;20481;-66
2021/11/28 03:53:08;;;;;;;;;;;;;;;-3.27;100.00;98052.55;1691978;84;20097;-66
2021/11/28 03:55:36;;;;;;;;;;;;;;;-3.33;100.00;98050.24;1750408;82;20534;-66
2021/11/28 03:58:04;;;;;;;;;;;;;;;-3.38;100.00;98043.48;1750609;82;20153;-66
2021/11/28 04:00:32;;;;;;;;;;;;;;;-3.31;100.00;98033.77;1750708;82;20149;-67
2021/11/28 04:03:01;;;;;;;;;;;;;;;-3.27;100.00;98040.75;1750327;81;21344;-66
2021/11/28 04:05:30;;;;;;;;;;;;;;;-3.29;100.00;98035.69;1750710;82;20138;-67
2021/11/28 04:07:56;;;;;;;;;;;;;;;-3.25;100.00;98037.42;1750358;80;20149;-67
2021/11/28 04:10:23;;;;;;;;;;;;;;;-3.24;100.00;98034.58;1751112;81;20156;-66
2021/11/28 04:12:50;;;;;;;;;;;;;;;-3.22;100.00;98032.27;1749084;81;20110;-67
2021/11/28 04:15:17;;;;;;;;;;;;;;;-3.16;100.00;98027.03;1749734;82;21167;-67
2021/11/28 04:17:48;;;;;;;;;;;;;;;-3.06;100.00;98028.73;1749571;80;20122;-66
2021/11/28 04:20:16;;;;;;;;;;;;;;;-3.04;100.00;98026.72;1750331;82;20144;-66
2021/11/28 04:22:42;;;;;;;;;;;;;;;-3.08;100.00;98026.81;1751544;81;20163;-67
2021/11/28 04:25:12;;;;;;;;;;;;;;;-3.06;100.00;98022.68;1750146;81;20398;-66
2021/11/28 04:27:40;;;;;;;;;;;;;;;-3.05;100.00;98022.45;1751298;81;21147;-65
2021/11/28 04:30:08;;;;;;;;;;;;;;;-3.00;100.00;98024.99;1751163;81;20089;-67
2021/11/28 04:32:35;;;;;;;;;;;;;;;-2.90;100.00;98035.36;1746697;81;20107;-66
2021/11/28 04:35:05;;;;;;;;;;;;;;;-2.82;100.00;98027.77;1751320;81;20083;-66
2021/11/28 04:37:32;;;;;;;;;;;;;;;-2.79;100.00;98028.70;1738743;81;20091;-66
2021/11/28 04:40:00;;;;;;;;;;;;;;;-2.78;100.00;98021.11;1750312;81;21155;-67
2021/11/28 04:42:30;;;;;;;;;;;;;;;-2.76;100.00;98032.22;1759370;81;20387;-66
2021/11/28 04:44:57;;;;;;;;;;;;;;;-2.80;100.00;98031.00;1756115;80;20308;-67
2021/11/28 04:47:24;;;;;;;;;;;;;;;-2.74;100.00;98025.43;1751675;81;20559;-66
2021/11/28 04:49:56;;;;;;;;;;;;;;;-2.68;100.00;98024.11;1758714;81;20128;-66
2021/11/28 04:52:24;;;;;;;;;;;;;;;-2.60;100.00;98021.77;1758445;81;21156;-66
2021/11/28 04:54:51;;;;;;;;;;;;;;;-2.48;100.00;98021.94;1747319;81;20145;-67
2021/11/28 04:57:19;;;;;;;;;;;;;;;-2.32;100.00;98019.37;1756476;81;20086;-66
2021/11/28 04:59:47;;;;;;;;;;;;;;;-2.19;100.00;98017.98;1751807;81;20110;-66
2021/11/28 05:02:18;;;;;;;;;;;;;;;-2.06;100.00;98012.66;1756080;81;20513;-67
2021/11/28 05:04:46;;;;;;;;;;;;;;;-1.97;100.00;98009.29;1746927;81;21934;-66
2021/11/28 05:07:23;;;;;;;;;;;;;;;-1.91;100.00;98005.83;1726513;81;20105;-66
2021/11/28 05:09:52;;;;;;;;;;;;;;;-1.88;100.00;98009.86;1747058;81;20142;-67
2021/11/28 05:12:20;;;;;;;;;;;;;;;-1.88;100.00;98015.92;1755570;80;20483;-67
2021/11/28 05:14:47;;;;;;;;;;;;;;;-1.90;100.00;98006.63;1752301;81;20173;-67
2021/11/28 05:17:14;;;;;;;;;;;;;;;-1.96;100.00;98002.52;1759179;81;21174;-68
2021/11/28 05:19:56;;;;;;;;;;;;;;;-2.00;100.00;98007.88;1749496;81;20201;-67
2021/11/28 05:22:25;;;;;;;;;;;;;;;-2.02;100.00;98002.55;1758091;81;20431;-67
2021/11/28 05:24:52;;;;;;;;;;;;;;;-2.03;100.00;98009.63;1750027;81;20163;-67
2021/11/28 05:27:21;;;;;;;;;;;;;;;-2.01;100.00;98008.92;1757629;81;20097;-68
2021/11/28 05:29:48;;;;;;;;;;;;;;;-1.99;100.00;98013.95;1758633;81;21163;-67
2021/11/28 05:32:15;;;;;;;;;;;;;;;-1.98;100.00;98010.31;1755481;80;20113;-68
2021/11/28 05:34:43;;;;;;;;;;;;;;;-1.98;100.00;98005.06;1739235;81;20204;-66
2021/11/28 05:37:21;;;;;;;;;;;;;;;-1.94;100.00;98011.48;1758289;81;20674;-67
2021/11/28 05:39:49;;;;;;;;;;;;;;;-1.91;100.00;98003.69;1754193;80;20136;-66
2021/11/28 05:42:16;;;;;;;;;;;;;;;-1.83;100.00;97996.87;1759517;81;21140;-66
2021/11/28 05:44:43;;;;;;;;;;;;;;;-1.74;100.00;97997.73;1727242;82;20166;-67
2021/11/28 05:47:14;;;;;;;;;;;;;;;-1.67;100.00;98006.07;1735379;81;20108;-66
2021/11/28 05:50:03;;;;;;;;;;;;;;;-1.62;100.00;98011.50;1750906;81;20122;-67
2021/11/28 05:52:35;;;;;;;;;;;;;;;-1.59;100.00;98022.94;1760137;81;20113;-67
2021/11/28 05:55:03;;;;;;;;;;;;;;;-1.57;100.00;98028.77;1761793;80;22468;-66
2021/11/28 05:57:30;;;;;;;;;;;;;;;-1.56;100.00;98027.25;1756689;81;20166;-68
2021/11/28 05:59:57;;;;;;;;;;;;;;;-1.56;100.00;98029.08;1740608;81;20150;-67
2021/11/28 06:02:24;;;;;;;;;;;;;;;-1.58;100.00;98020.07;1751030;81;20131;-66
2021/11/28 06:04:52;;;;;;;;;;;;;;;-1.54;100.00;98027.05;1738143;80;20131;-66
2021/11/28 06:07:39;;;;;;;;;;;;;;;-1.52;100.00;98026.30;1709956;84;21799;-66
2021/11/28 06:10:12;;;;;;;;;;;;;;;-1.49;100.00;98023.75;1698534;84;20870;-66
2021/11/28 06:12:42;;;;;;;;;;;;;;;-1.44;100.00;98022.62;1656345;85;20135;-67
2021/11/28 06:15:11;;;;;;;;;;;;;;;-1.41;100.00;98028.77;1684353;84;20090;-66
2021/11/28 06:17:51;;;;;;;;;;;;;;;-1.39;100.00;98038.06;1712665;83;20201;-67
2021/11/28 06:20:32;;;;;;;;;;;;;;;-1.39;100.00;98034.63;1704342;84;21170;-65
2021/11/28 06:23:07;;;;;;;;;;;;;;;-1.38;100.00;98032.29;1706233;83;20089;-66
2021/11/28 06:25:35;;;;;;;;;;;;;;;-1.34;100.00;98037.43;1715223;83;20437;-68
2021/11/28 06:28:04;;;;;;;;;;;;;;;-1.32;100.00;98037.52;1696801;83;20611;-69
2021/11/28 06:30:32;;;;;;;;;;;;;;;-1.27;100.00;98032.92;1736452;82;20447;-69
2021/11/28 06:33:20;;;;;;;;;;;;;;;-1.26;100.00;98028.45;1758258;81;20554;-68
2021/11/28 06:36:06;;;;;;;;;;;;;;;-1.26;100.00;98015.30;1749901;81;20090;-70
2021/11/28 06:38:51;;;;;;;;;;;;;;;-1.21;100.00;98015.45;1761637;81;20236;-67
2021/11/28 06:41:29;;;;;;;;;;;;;;;-1.17;100.00;98028.49;1761133;81;20098;-68
2021/11/28 06:43:56;;;;;;;;;;;;;;;-1.20;100.00;98027.58;1756364;81;20082;-67
2021/11/28 06:46:24;;;;;;;;;;;;;;;-1.16;100.00;98028.26;1734325;81;22694;-70
2021/11/28 06:48:51;;;;;;;;;;;;;;;-1.14;100.00;98036.75;1683261;84;20643;-70
2021/11/28 06:51:36;;;;;;;;;;;;;;;-1.11;100.00;98037.63;1725084;83;20493;-68
2021/11/28 06:54:05;;;;;;;;;;;;;;;-1.07;100.00;98039.34;1723227;83;20176;-71
2021/11/28 06:56:37;;;;;;;;;;;;;;;-1.05;100.00;98034.67;1724372;82;20193;-67
2021/11/28 06:59:10;;;;;;;;;;;;;;;-1.05;100.00;98035.98;1723261;83;20131;-66
2021/11/28 07:01:38;;;;;;;;;;;;;;;-1.03;100.00;98038.38;1719430;83;20434;-67
2021/11/28 07:04:07;;;;;;;;;;;;;;;-1.02;100.00;98040.02;1714509;82;20180;-72
2021/11/28 07:06:36;;;;;;;;;;;;;;;-0.98;100.00;98039.38;1719782;82;20141;-68
2021/11/28 07:09:04;;;;;;;;;;;;;;;-0.96;100.00;98043.09;1711379;81;20208;-70
2021/11/28 07:11:31;;;;;;;;;;;;;;;-0.94;100.00;98041.84;1722997;82;21142;-67
2021/11/28 07:13:58;;;;;;;;;;;;;;;-0.92;100.00;98038.48;1720656;81;20150;-70
2021/11/28 07:16:25;;;;;;;;;;;;;;;-0.90;100.00;98041.72;1696256;84;20507;-72
2021/11/28 07:18:52;;;;;;;;;;;;;;;-0.94;100.00;98043.16;1707745;82;20141;-68
2021/11/28 07:21:37;;;;;;;;;;;;;;;-0.94;100.00;98042.36;1718472;82;20196;-69
2021/11/28 07:24:06;;;;;;;;;;;;;;;-0.87;100.00;98044.42;1725022;81;21156;-69
2021/11/28 07:26:38;;;;;;;;;;;;;;;-0.86;100.00;98043.39;1725272;83;20192;-70
2021/11/28 07:29:07;;;;;;;;;;;;;;;-0.86;100.00;98046.03;1721013;81;20116;-70
2021/11/28 07:31:35;;;;;;;;;;;;;;;-0.87;100.00;98046.55;1671090;83;20200;-71
2021/11/28 07:34:11;;;;;;;;;;;;;;;-0.77;100.00;98041.30;1656860;86;20138;-69
2021/11/28 07:36:43;;;;;;;;;;;;;;;-0.66;100.00;98039.27;1649020;84;21141;-73
2021/11/28 07:39:11;;;;;;;;;;;;;;;-0.66;100.00;98041.39;1695415;83;20150;-72
2021/11/28 07:41:39;;;;;;;;;;;;;;;-0.55;100.00;98052.23;1651837;85;20578;-72
2021/11/28 07:44:08;;;;;;;;;;;;;;;-0.53;100.00;98040.45;1642730;85;20427;-74
2021/11/28 07:46:40;;;;;;;;;;;;;;;-0.53;100.00;98053.62;1642726;85;20158;-72
2021/11/28 07:49:10;;;;;;;;;;;;;;;-0.43;100.00;98049.16;1622790;87;21208;-70
2021/11/28 07:51:39;;;;;;;;;;;;;;;-0.34;100.00;98054.44;1671683;85;20137;-71
2021/11/28 07:54:09;;;;;;;;;;;;;;;-0.32;100.00;98051.56;1648424;85;20209;-71
2021/11/28 07:56:38;;;;;;;;;;;;;;;-0.29;100.00;98051.16;1649177;85;20142;-70
2021/11/28 07:59:08;;;;;;;;;;;;;;;-0.21;100.00;98054.80;1649161;84;20278;-71
2021/11/28 08:01:36;;;;;;;;;;;;;;;-0.17;100.00;98055.15;1606620;85;21394;-70
2021/11/28 08:04:20;;;;;;;;;;;;;;;-0.13;100.00;98055.01;1622150;85;20680;-73
2021/11/28 08:07:07;;;;;;;;;;;;;;;-0.12;100.00;98064.52;1622581;86;20152;-73
2021/11/28 08:09:45;;;;;;;;;;;;;;;-0.13;100.00;98060.28;1626551;87;20242;-73
2021/11/28 08:12:16;;;;;;;;;;;;;;;-0.09;100.00;98059.63;1612539;87;20158;-72
2021/11/28 08:14:43;;;;;;;;;;;;;;;0.00;100.00;98053.55;1606787;87;21171;-71
2021/11/28 08:17:13;;;;;;;;;;;;;;;0.04;100.00;98057.33;1627541;86;20215;-70
2021/11/28 08:19:42;;;;;;;;;;;;;;;0.12;100.00;98055.73;1626344;88;20242;-70
2021/11/28 08:22:09;;;;;;;;;;;;;;;0.24;100.00;98052.31;1633721;86;20747;-70
2021/11/28 08:24:37;;;;;;;;;;;;;;;0.25;100.00;98049.46;1631874;87;20305;-70
2021/11/28 08:27:06;;;;;;;;;;;;;;;0.25;100.00;98038.91;1623338;86;20152;-69
2021/11/28 08:29:35;;;;;;;;;;;;;;;0.27;100.00;98036.85;1613457;87;20702;-70
2021/11/28 08:32:06;;;;;;;;;;;;;;;0.36;100.00;98033.36;1618863;87;20181;-71
2021/11/28 08:34:52;;;;;;;;;;;;;;;0.41;100.00;98030.85;1620275;87;20801;-73
2021/11/28 08:37:21;;;;;;;;;;;;;;;0.45;100.00;98033.34;1622245;85;20220;-74
2021/11/28 08:39:50;;;;;;;;;;;;;;;0.52;100.00;98035.89;1632058;85;21468;-73
2021/11/28 08:42:21;;;;;;;;;;;;;;;0.58;100.00;98038.94;1689382;82;20129;-74
2021/11/28 08:44:48;;;;;;;;;;;;;;;0.64;100.00;98026.96;1700793;83;20211;-74
2021/11/28 08:47:19;;;;;;;;;;;;;;;0.69;100.00;98024.17;1700336;82;20190;-74
2021/11/28 08:49:47;;;;;;;;;;;;;;;0.72;100.00;98027.67;1705495;83;20194;-73
2021/11/28 08:52:14;;;;;;;;;;;;;;;0.77;100.00;98017.22;1706352;83;21170;-73
2021/11/28 08:54:42;;;;;;;;;;;;;;;0.86;100.00;98006.62;1696993;83;20164;-74
2021/11/28 08:57:11;;;;;;;;;;;;;;;0.93;100.00;98007.31;1721809;83;20114;-74
2021/11/28 08:59:39;;;;;;;;;;;;;;;0.95;100.00;98002.58;1734002;82;20187;-73
2021/11/28 09:02:06;;;;;;;;;;;;;;;1.02;100.00;98002.47;1760108;80;20141;-73
2021/11/28 09:04:34;;;;;;;;;;;;;;;1.02;100.00;98001.95;1752696;80;21615;-70
2021/11/28 09:07:02;;;;;;;;;;;;;;;1.08;100.00;98006.86;1760399;80;20159;-71
2021/11/28 09:09:31;;;;;;;;;;;;;;;1.12;100.00;97997.94;1768396;80;20204;-72
2021/11/28 09:12:02;;;;;;;;;;;;;;;1.19;100.00;97995.98;1750400;82;20093;-72
2021/11/28 09:14:31;;;;;;;;;;;;;;;1.26;100.00;97986.89;1753130;80;20220;-75
2021/11/28 09:16:58;;;;;;;;;;;;;;;1.28;100.00;97978.22;1751930;80;21128;-74
2021/11/28 09:19:51;;;;;;;;;;;;;;;1.39;100.00;97982.39;1751380;81;20224;-72
2021/11/28 09:24:23;;;;;;;;;;;;;;;1.37;100.00;97987.94;1747669;80;20128;-73
2021/11/28 09:24:53;;;;;;;;;;;;;;;1.31;100.00;97992.02;1765282;80;20170;-74
2021/11/28 09:27:21;;;;;;;;;;;;;;;1.31;100.00;97990.69;1752465;80;20112;-72
2021/11/28 09:29:50;;;;;;;;;;;;;;;1.35;100.00;97993.14;1730833;80;21173;-71
2021/11/28 09:32:17;;;;;;;;;;;;;;;1.36;100.00;97983.66;1752923;80;20128;-70
2021/11/28 09:34:45;;;;;;;;;;;;;;;1.44;100.00;97974.04;1753199;80;20165;-72
2021/11/28 09:37:11;;;;;;;;;;;;;;;1.51;100.00;97972.59;1760688;80;20521;-68
2021/11/28 09:39:42;;;;;;;;;;;;;;;1.56;100.00;97974.02;1750791;80;20508;-70
2021/11/28 09:42:09;;;;;;;;;;;;;;;1.59;100.00;97978.03;1754407;80;21165;-71
2021/11/28 09:44:40;;;;;;;;;;;;;;;1.60;100.00;97972.52;1755924;79;20115;-71
2021/11/28 09:47:10;;;;;;;;;;;;;;;1.61;100.00;97966.71;1751209;79;20625;-70
2021/11/28 09:49:40;;;;;;;;;;;;;;;1.70;100.00;97978.53;1748924;80;20514;-72
2021/11/28 09:52:11;;;;;;;;;;;;;;;1.79;100.00;97974.98;1750447;80;20212;-72
2021/11/28 09:54:40;;;;;;;;;;;;;;;1.79;100.00;97964.40;1727709;81;21806;-69
2021/11/28 09:57:19;;;;;;;;;;;;;;;1.84;100.00;97960.03;1760039;80;20149;-70
2021/11/28 09:59:51;;;;;;;;;;;;;;;1.84;100.00;97962.67;1770054;79;20090;-71
2021/11/28 10:02:29;;;;;;;;;;;;;;;1.86;100.00;97963.25;1746505;80;20189;-75
2021/11/28 10:04:58;;;;;;;;;;;;;;;1.94;100.00;97967.36;1750850;82;20072;-72
2021/11/28 10:07:28;;;;;;;;;;;;;;;1.98;100.00;97955.77;1750995;82;22342;-74
2021/11/28 10:09:56;;;;;;;;;;;;;;;2.02;100.00;97960.88;1752056;82;20137;-72
2021/11/28 10:12:34;;;;;;;;;;;;;;;2.06;100.00;97961.49;1752269;81;20120;-74
2021/11/28 10:15:04;;;;;;;;;;;;;;;2.09;100.00;97968.95;1773344;80;20137;-72
2021/11/28 10:17:36;;;;;;;;;;;;;;;2.11;100.00;97966.87;1780663;80;20137;-74
2021/11/28 10:20:12;;;;;;;;;;;;;;;2.10;100.00;97954.66;1734603;80;21195;-73
2021/11/28 10:22:40;;;;;;;;;;;;;;;2.10;100.00;97948.57;1726152;79;20102;-74
2021/11/28 10:25:16;;;;;;;;;;;;;;;2.18;100.00;97950.02;1724913;83;20146;-74
2021/11/28 10:27:58;;;;;;;;;;;;;;;2.19;100.00;97949.80;1754953;79;20858;-74
2021/11/28 10:30:41;;;;;;;;;;;;;;;2.26;100.00;97941.19;1778283;80;20199;-74
2021/11/28 10:33:16;;;;;;;;;;;;;;;2.34;100.00;97928.86;1777904;80;21157;-73
2021/11/28 10:36:08;;;;;;;;;;;;;;;2.48;100.00;97928.56;1779492;80;20219;-75
2021/11/28 10:38:41;;;;;;;;;;;;;;;2.60;100.00;97921.34;1734349;81;20099;-75
2021/11/28 10:41:21;;;;;;;;;;;;;;;2.81;100.00;97918.98;1730120;81;20397;-74
2021/11/28 10:43:48;;;;;;;;;;;;;;;3.36;100.00;97924.77;1731448;81;20128;-74
2021/11/28 10:46:30;;;;;;;;;;;;;;;3.93;100.00;97925.66;1733996;81;21145;-75
2021/11/28 10:49:08;;;;;;;;;;;;;;;4.00;100.00;97918.83;1733789;81;20083;-76
2021/11/28 10:51:40;;;;;;;;;;;;;;;3.96;100.00;97923.81;1730967;81;20103;-74
2021/11/28 10:54:21;;;;;;;;;;;;;;;3.86;100.00;97913.11;1730532;81;20128;-74
2021/11/28 10:56:49;;;;;;;;;;;;;;;3.81;100.00;97907.75;1721427;81;20153;-75
2021/11/28 10:59:18;;;;;;;;;;;;;;;3.74;100.00;97902.63;1693194;83;21176;-72
2021/11/28 11:01:45;;;;;;;;;;;;;;;3.93;100.00;97895.66;1730042;81;20623;-72
2021/11/28 11:04:20;;;;;;;;;;;;;;;4.43;100.00;97900.59;1730105;81;20099;-72
2021/11/28 11:07:12;;;;;;;;;;;;;;;4.63;100.00;97899.97;1730678;81;20150;-73
2021/11/28 11:09:45;;;;;;;;;;;;;;;4.39;100.00;97897.39;1718092;82;20094;-73
2021/11/28 11:12:28;;;;;;;;;;;;;;;4.23;100.00;97895.13;1730528;81;20770;-73
2021/11/28 11:14:57;;;;;;;;;;;;;;;4.18;100.00;97895.88;1716105;81;20717;-74
2021/11/28 11:17:27;;;;;;;;;;;;;;;4.07;100.00;97896.33;1730537;81;20138;-74
2021/11/28 11:19:56;;;;;;;;;;;;;;;4.00;100.00;97904.22;1730733;81;20429;-73
2021/11/28 11:22:25;;;;;;;;;;;;;;;3.96;100.00;97897.80;1730472;81;20071;-73
2021/11/28 11:25:15;;;;;;;;;;;;;;;3.99;100.00;97880.04;1730293;81;21125;-73
2021/11/28 11:27:40;;;;;;;;;;;;;;;4.05;100.00;97877.72;1730060;81;20780;-73
2021/11/28 11:30:20;;;;;;;;;;;;;;;4.10;100.00;97881.74;1730378;81;20157;-74
2021/11/28 11:32:49;;;;;;;;;;;;;;;4.08;100.00;97884.64;1730364;81;20071;-72
2021/11/28 11:35:20;;;;;;;;;;;;;;;4.08;100.00;97883.31;1730377;81;20139;-73
2021/11/28 11:37:49;;;;;;;;;;;;;;;4.10;100.00;97879.09;1730620;81;21092;-73
2021/11/28 11:40:19;;;;;;;;;;;;;;;4.16;100.00;97870.62;1730702;81;20091;-74
2021/11/28 11:42:46;;;;;;;;;;;;;;;4.22;100.00;97876.27;1730515;81;20181;-72
2021/11/28 11:45:19;;;;;;;;;;;;;;;4.32;100.00;97869.70;1730428;81;20186;-72
2021/11/28 11:47:46;;;;;;;;;;;;;;;4.40;100.00;97864.45;1730490;81;20441;-73
2021/11/28 11:50:16;;;;;;;;;;;;;;;4.46;100.00;97864.77;1730500;81;22182;-72
2021/11/28 11:52:43;;;;;;;;;;;;;;;4.50;100.00;97858.66;1717681;81;20119;-73
2021/11/28 11:55:15;;;;;;;;;;;;;;;4.52;100.00;97861.08;1730263;81;20432;-72
2021/11/28 11:58:18;;;;;;;;;;;;;;;4.49;100.00;97858.41;1730549;81;20111;-74
2021/11/28 12:00:56;;;;;;;;;;;;;;;4.49;100.00;97859.73;1730288;81;20427;-74
2021/11/28 12:03:25;;;;;;;;;;;;;;;4.51;100.00;97860.28;1730548;81;21163;-74
2021/11/28 12:05:57;;;;;;;;;;;;;;;4.53;100.00;97864.00;1730135;81;20557;-74
2021/11/28 12:08:28;;;;;;;;;;;;;;;4.56;100.00;97857.37;1730407;81;20087;-73
2021/11/28 12:11:06;;;;;;;;;;;;;;;4.58;100.00;97857.92;1730441;81;20143;-74
2021/11/28 12:13:42;;;;;;;;;;;;;;;4.63;100.00;97847.31;1730737;81;20115;-74
2021/11/28 12:16:18;;;;;;;;;;;;;;;4.68;100.00;97849.50;1730553;82;21145;-74
2021/11/28 12:18:49;;;;;;;;;;;;;;;4.75;100.00;97837.83;1730321;81;20087;-74
2021/11/28 12:21:33;;;;;;;;;;;;;;;4.79;100.00;97842.91;1730666;81;20123;-73
2021/11/28 12:24:09;;;;;;;;;;;;;;;4.80;100.00;97847.16;1730324;81;20143;-73
2021/11/28 12:26:36;;;;;;;;;;;;;;;4.80;100.00;97833.86;1730493;81;20158;-74
2021/11/28 12:29:17;;;;;;;;;;;;;;;4.80;100.00;97819.24;1730466;81;20170;-74
2021/11/28 12:31:54;;;;;;;;;;;;;;;4.82;100.00;97813.14;1730404;81;20664;-73
2021/11/28 12:34:22;;;;;;;;;;;;;;;4.81;100.00;97811.02;1717680;81;20103;-72
2021/11/28 12:36:51;;;;;;;;;;;;;;;4.84;100.00;97809.70;1730563;81;20115;-73
2021/11/28 12:39:23;;;;;;;;;;;;;;;4.83;100.00;97806.78;1748439;80;20131;-73
2021/11/28 12:42:00;;;;;;;;;;;;;;;4.83;100.00;97804.13;1753597;82;21814;-74
2021/11/28 12:44:53;;;;;;;;;;;;;;;4.84;100.00;97808.38;1753199;82;20116;-74
2021/11/28 12:47:23;;;;;;;;;;;;;;;4.82;100.00;97793.20;1752446;81;20427;-73
2021/11/28 12:49:58;;;;;;;;;;;;;;;4.82;100.00;97795.87;1721462;82;20096;-72
2021/11/28 12:52:34;;;;;;;;;;;;;;;4.81;100.00;97796.40;1753345;81;20156;-72
2021/11/28 12:55:13;;;;;;;;;;;;;;;4.82;100.00;97803.30;1753159;81;21144;-72
2021/11/28 12:57:45;;;;;;;;;;;;;;;4.82;100.00;97807.29;1753111;82;20446;-72